Terminal Aerodrome Forecast
Issued by NWS Raleigh/Durham, NC

Home | Current Version | Previous Version | Text Only | Print | Product List | Glossary On
Versions: 1 2 3 4 5 6 7 8 9 10 11 12 13 14 15 16 17 18 19 20 21 22 23 24 25 26 27 28 29 30 31 32 33 34 35 36 37 38 39 40 41 42 43 44 45
000
FTUS42 KRAH 010656 AAA
TAFFAY
TAF AMD
KFAY 010656Z 0107/0206 VRB04KT 1/4SM FG OVC003
      TEMPO 0107/0111 1/2SM FG OVC001
     FM011200 00000KT 1SM BR BKN002
     FM011300 VRB02KT 2SM BR BKN003
     FM011500 VRB04KT P6SM FEW008 SCT250
     FM011800 VRB03KT P6SM BKN040=

USA.gov is the U.S. government's official web portal to all federal, state and local government web resources and services.